sensor_id;sensor_type;location;lat;lon;timestamp;P1;durP1;ratioP1;P2;durP2;ratioP2
54143;SDS011;40050;47.324;18.792;2023-05-19T00:01:27;5.16;;;3.73;;
54143;SDS011;40050;47.324;18.792;2023-05-19T00:03:28;4.73;;;3.73;;
54143;SDS011;40050;47.324;18.792;2023-05-19T00:05:30;4.04;;;3.64;;
54143;SDS011;40050;47.324;18.792;2023-05-19T00:07:31;4.73;;;3.92;;
54143;SDS011;40050;47.324;18.792;2023-05-19T00:09:41;5.25;;;4.21;;
54143;SDS011;40050;47.324;18.792;2023-05-19T00:11:42;5.50;;;3.92;;
54143;SDS011;40050;47.324;18.792;2023-05-19T00:13:43;7.73;;;3.92;;
54143;SDS011;40050;47.324;18.792;2023-05-19T00:15:45;6.10;;;4.02;;
54143;SDS011;40050;47.324;18.792;2023-05-19T00:17:46;5.74;;;4.20;;
54143;SDS011;40050;47.324;18.792;2023-05-19T00:19:47;5.40;;;4.01;;
54143;SDS011;40050;47.324;18.792;2023-05-19T00:21:48;6.25;;;4.01;;
54143;SDS011;40050;47.324;18.792;2023-05-19T00:23:48;7.27;;;4.49;;
54143;SDS011;40050;47.324;18.792;2023-05-19T00:25:49;6.92;;;4.77;;
54143;SDS011;40050;47.324;18.792;2023-05-19T00:27:50;8.72;;;5.53;;
54143;SDS011;40050;47.324;18.792;2023-05-19T00:29:51;7.26;;;5.06;;
54143;SDS011;40050;47.324;18.792;2023-05-19T00:31:52;6.93;;;4.68;;
54143;SDS011;40050;47.324;18.792;2023-05-19T00:33:53;6.49;;;5.06;;
54143;SDS011;40050;47.324;18.792;2023-05-19T00:35:54;7.94;;;5.34;;
54143;SDS011;40050;47.324;18.792;2023-05-19T00:37:55;7.00;;;4.96;;
54143;SDS011;40050;47.324;18.792;2023-05-19T00:39:56;8.54;;;5.72;;
54143;SDS011;40050;47.324;18.792;2023-05-19T00:41:57;7.26;;;5.44;;
54143;SDS011;40050;47.324;18.792;2023-05-19T00:43:58;8.29;;;5.24;;
54143;SDS011;40050;47.324;18.792;2023-05-19T00:45:59;6.40;;;5.24;;
54143;SDS011;40050;47.324;18.792;2023-05-19T00:48:00;6.82;;;5.43;;
54143;SDS011;40050;47.324;18.792;2023-05-19T00:50:01;7.25;;;5.72;;
54143;SDS011;40050;47.324;18.792;2023-05-19T00:52:02;8.11;;;5.81;;
54143;SDS011;40050;47.324;18.792;2023-05-19T00:54:03;8.53;;;6.58;;
54143;SDS011;40050;47.324;18.792;2023-05-19T00:56:07;8.02;;;5.72;;
54143;SDS011;40050;47.324;18.792;2023-05-19T00:58:08;7.93;;;6.00;;
54143;SDS011;40050;47.324;18.792;2023-05-19T01:00:09;7.93;;;6.00;;
54143;SDS011;40050;47.324;18.792;2023-05-19T01:02:10;8.54;;;6.01;;
54143;SDS011;40050;47.324;18.792;2023-05-19T01:04:11;7.70;;;6.01;;
54143;SDS011;40050;47.324;18.792;2023-05-19T01:06:12;10.26;;;6.20;;
54143;SDS011;40050;47.324;18.792;2023-05-19T01:08:13;7.01;;;6.01;;
54143;SDS011;40050;47.324;18.792;2023-05-19T01:10:14;7.86;;;6.39;;
54143;SDS011;40050;47.324;18.792;2023-05-19T01:12:15;9.54;;;5.93;;
54143;SDS011;40050;47.324;18.792;2023-05-19T01:14:16;5.63;;;5.09;;
54143;SDS011;40050;47.324;18.792;2023-05-19T01:16:30;7.70;;;4.45;;
54143;SDS011;40050;47.324;18.792;2023-05-19T01:19:00;6.49;;;4.37;;
54143;SDS011;40050;47.324;18.792;2023-05-19T01:21:05;5.50;;;4.46;;
54143;SDS011;40050;47.324;18.792;2023-05-19T01:25:38;5.38;;;4.64;;
54143;SDS011;40050;47.324;18.792;2023-05-19T01:32:06;7.90;;;4.07;;
54143;SDS011;40050;47.324;18.792;2023-05-19T01:34:08;4.71;;;3.88;;
54143;SDS011;40050;47.324;18.792;2023-05-19T01:36:09;7.13;;;3.98;;
54143;SDS011;40050;47.324;18.792;2023-05-19T01:38:11;5.27;;;3.99;;
54143;SDS011;40050;47.324;18.792;2023-05-19T01:40:12;4.82;;;3.50;;
54143;SDS011;40050;47.324;18.792;2023-05-19T01:42:14;5.89;;;3.60;;
54143;SDS011;40050;47.324;18.792;2023-05-19T01:44:15;4.64;;;3.69;;
54143;SDS011;40050;47.324;18.792;2023-05-19T01:46:16;4.47;;;3.50;;
54143;SDS011;40050;47.324;18.792;2023-05-19T01:48:18;4.30;;;3.70;;
54143;SDS011;40050;47.324;18.792;2023-05-19T01:50:19;4.03;;;3.60;;
54143;SDS011;40050;47.324;18.792;2023-05-19T01:52:20;5.02;;;3.70;;
54143;SDS011;40050;47.324;18.792;2023-05-19T01:54:21;8.78;;;3.80;;
54143;SDS011;40050;47.324;18.792;2023-05-19T01:56:37;4.22;;;3.51;;
54143;SDS011;40050;47.324;18.792;2023-05-19T01:58:46;5.12;;;3.80;;
54143;SDS011;40050;47.324;18.792;2023-05-19T02:03:14;5.21;;;3.51;;
54143;SDS011;40050;47.324;18.792;2023-05-19T02:05:19;6.82;;;3.60;;
54143;SDS011;40050;47.324;18.792;2023-05-19T02:07:36;4.93;;;3.60;;
54143;SDS011;40050;47.324;18.792;2023-05-19T02:09:42;4.40;;;3.70;;
54143;SDS011;40050;47.324;18.792;2023-05-19T02:11:50;5.75;;;4.19;;
54143;SDS011;40050;47.324;18.792;2023-05-19T02:13:45;5.48;;;3.60;;
54143;SDS011;40050;47.324;18.792;2023-05-19T02:15:47;4.66;;;3.60;;
54143;SDS011;40050;47.324;18.792;2023-05-19T02:17:48;5.46;;;3.89;;
54143;SDS011;40050;47.324;18.792;2023-05-19T02:19:57;5.27;;;3.79;;
54143;SDS011;40050;47.324;18.792;2023-05-19T02:21:58;5.27;;;4.18;;
54143;SDS011;40050;47.324;18.792;2023-05-19T02:23:58;4.29;;;3.79;;
54143;SDS011;40050;47.324;18.792;2023-05-19T02:25:59;5.54;;;3.99;;
54143;SDS011;40050;47.324;18.792;2023-05-19T02:28:00;5.08;;;3.59;;
54143;SDS011;40050;47.324;18.792;2023-05-19T02:30:04;5.43;;;3.88;;
54143;SDS011;40050;47.324;18.792;2023-05-19T02:32:02;5.70;;;3.79;;
54143;SDS011;40050;47.324;18.792;2023-05-19T02:34:03;7.48;;;4.17;;
54143;SDS011;40050;47.324;18.792;2023-05-19T02:36:04;5.16;;;3.88;;
54143;SDS011;40050;47.324;18.792;2023-05-19T02:38:05;11.20;;;3.98;;
54143;SDS011;40050;47.324;18.792;2023-05-19T02:40:06;9.78;;;3.78;;
54143;SDS011;40050;47.324;18.792;2023-05-19T02:42:07;5.51;;;3.59;;
54143;SDS011;40050;47.324;18.792;2023-05-19T02:44:08;7.10;;;4.46;;
54143;SDS011;40050;47.324;18.792;2023-05-19T02:46:09;7.28;;;4.17;;
54143;SDS011;40050;47.324;18.792;2023-05-19T02:48:10;9.75;;;3.68;;
54143;SDS011;40050;47.324;18.792;2023-05-19T02:50:11;8.68;;;4.07;;
54143;SDS011;40050;47.324;18.792;2023-05-19T02:52:12;8.76;;;3.58;;
54143;SDS011;40050;47.324;18.792;2023-05-19T02:54:13;7.51;;;4.07;;
54143;SDS011;40050;47.324;18.792;2023-05-19T02:56:13;6.81;;;3.87;;
54143;SDS011;40050;47.324;18.792;2023-05-19T02:58:14;7.95;;;4.16;;
54143;SDS011;40050;47.324;18.792;2023-05-19T03:00:15;5.74;;;4.16;;
54143;SDS011;40050;47.324;18.792;2023-05-19T03:02:16;7.78;;;4.07;;
54143;SDS011;40050;47.324;18.792;2023-05-19T03:04:17;6.62;;;3.97;;
54143;SDS011;40050;47.324;18.792;2023-05-19T03:06:18;5.91;;;4.25;;
54143;SDS011;40050;47.324;18.792;2023-05-19T03:08:19;8.90;;;4.06;;
54143;SDS011;40050;47.324;18.792;2023-05-19T03:10:20;6.08;;;4.06;;
54143;SDS011;40050;47.324;18.792;2023-05-19T03:12:21;6.60;;;4.54;;
54143;SDS011;40050;47.324;18.792;2023-05-19T03:14:22;5.72;;;4.25;;
54143;SDS011;40050;47.324;18.792;2023-05-19T03:16:23;6.60;;;4.73;;
54143;SDS011;40050;47.324;18.792;2023-05-19T03:18:27;6.24;;;4.73;;
54143;SDS011;40050;47.324;18.792;2023-05-19T03:20:25;7.38;;;4.92;;
54143;SDS011;40050;47.324;18.792;2023-05-19T03:22:26;6.93;;;4.73;;
54143;SDS011;40050;47.324;18.792;2023-05-19T03:24:26;6.23;;;4.44;;
54143;SDS011;40050;47.324;18.792;2023-05-19T03:26:27;7.36;;;4.82;;
54143;SDS011;40050;47.324;18.792;2023-05-19T03:28:28;6.58;;;4.34;;
54143;SDS011;40050;47.324;18.792;2023-05-19T03:30:29;6.24;;;4.92;;
54143;SDS011;40050;47.324;18.792;2023-05-19T03:32:30;7.81;;;4.92;;
54143;SDS011;40050;47.324;18.792;2023-05-19T03:34:31;6.41;;;4.92;;
54143;SDS011;40050;47.324;18.792;2023-05-19T03:36:32;8.08;;;5.12;;
54143;SDS011;40050;47.324;18.792;2023-05-19T03:38:33;6.41;;;4.54;;
54143;SDS011;40050;47.324;18.792;2023-05-19T03:40:34;6.85;;;4.73;;
54143;SDS011;40050;47.324;18.792;2023-05-19T03:42:35;6.32;;;4.63;;
54143;SDS011;40050;47.324;18.792;2023-05-19T03:44:36;5.97;;;4.54;;
54143;SDS011;40050;47.324;18.792;2023-05-19T03:46:37;6.41;;;4.54;;
54143;SDS011;40050;47.324;18.792;2023-05-19T03:48:39;7.72;;;4.63;;
54143;SDS011;40050;47.324;18.792;2023-05-19T03:50:40;6.40;;;4.25;;
54143;SDS011;40050;47.324;18.792;2023-05-19T03:52:44;6.93;;;4.05;;
54143;SDS011;40050;47.324;18.792;2023-05-19T03:54:46;7.27;;;4.15;;
54143;SDS011;40050;47.324;18.792;2023-05-19T03:56:47;5.52;;;3.96;;
54143;SDS011;40050;47.324;18.792;2023-05-19T03:58:48;5.52;;;4.63;;
54143;SDS011;40050;47.324;18.792;2023-05-19T04:00:49;7.27;;;4.44;;
54143;SDS011;40050;47.324;18.792;2023-05-19T04:02:50;6.92;;;4.63;;
54143;SDS011;40050;47.324;18.792;2023-05-19T04:04:51;6.84;;;4.54;;
54143;SDS011;40050;47.324;18.792;2023-05-19T04:06:52;5.88;;;4.15;;
54143;SDS011;40050;47.324;18.792;2023-05-19T04:08:53;5.27;;;4.25;;
54143;SDS011;40050;47.324;18.792;2023-05-19T04:10:54;6.84;;;4.73;;
54143;SDS011;40050;47.324;18.792;2023-05-19T04:12:55;5.61;;;4.34;;
54143;SDS011;40050;47.324;18.792;2023-05-19T04:14:55;7.54;;;4.44;;
54143;SDS011;40050;47.324;18.792;2023-05-19T04:16:56;7.23;;;4.25;;
54143;SDS011;40050;47.324;18.792;2023-05-19T04:18:57;6.71;;;4.55;;
54143;SDS011;40050;47.324;18.792;2023-05-19T04:20:58;6.80;;;4.84;;
54143;SDS011;40050;47.324;18.792;2023-05-19T04:22:59;7.42;;;4.94;;
54143;SDS011;40050;47.324;18.792;2023-05-19T04:25:00;6.18;;;4.84;;
54143;SDS011;40050;47.324;18.792;2023-05-19T04:27:01;6.89;;;4.74;;
54143;SDS011;40050;47.324;18.792;2023-05-19T04:29:02;5.74;;;4.55;;
54143;SDS011;40050;47.324;18.792;2023-05-19T04:31:03;7.69;;;4.84;;
54143;SDS011;40050;47.324;18.792;2023-05-19T04:33:04;5.67;;;4.36;;
54143;SDS011;40050;47.324;18.792;2023-05-19T04:35:08;6.04;;;4.75;;
54143;SDS011;40050;47.324;18.792;2023-05-19T04:37:08;5.85;;;4.75;;
54143;SDS011;40050;47.324;18.792;2023-05-19T04:39:10;9.74;;;4.75;;
54143;SDS011;40050;47.324;18.792;2023-05-19T04:41:10;8.15;;;5.14;;
54143;SDS011;40050;47.324;18.792;2023-05-19T04:43:11;6.93;;;4.75;;
54143;SDS011;40050;47.324;18.792;2023-05-19T04:45:12;6.67;;;4.56;;
54143;SDS011;40050;47.324;18.792;2023-05-19T04:47:13;9.16;;;4.76;;
54143;SDS011;40050;47.324;18.792;2023-05-19T04:49:14;7.81;;;4.95;;
54143;SDS011;40050;47.324;18.792;2023-05-19T04:51:15;6.22;;;4.95;;
54143;SDS011;40050;47.324;18.792;2023-05-19T04:53:16;6.32;;;5.24;;
54143;SDS011;40050;47.324;18.792;2023-05-19T04:55:17;8.13;;;5.15;;
54143;SDS011;40050;47.324;18.792;2023-05-19T04:57:18;8.67;;;5.15;;
54143;SDS011;40050;47.324;18.792;2023-05-19T04:59:20;7.23;;;4.76;;
54143;SDS011;40050;47.324;18.792;2023-05-19T05:01:20;6.69;;;5.05;;
54143;SDS011;40050;47.324;18.792;2023-05-19T05:03:21;9.45;;;4.95;;
54143;SDS011;40050;47.324;18.792;2023-05-19T05:05:22;9.03;;;5.54;;
54143;SDS011;40050;47.324;18.792;2023-05-19T05:07:23;7.08;;;5.35;;
54143;SDS011;40050;47.324;18.792;2023-05-19T05:09:24;8.52;;;5.26;;
54143;SDS011;40050;47.324;18.792;2023-05-19T05:11:25;8.67;;;5.08;;
54143;SDS011;40050;47.324;18.792;2023-05-19T05:13:29;6.87;;;4.98;;
54143;SDS011;40050;47.324;18.792;2023-05-19T05:15:30;6.64;;;5.19;;
54143;SDS011;40050;47.324;18.792;2023-05-19T05:17:32;8.27;;;4.99;;
54143;SDS011;40050;47.324;18.792;2023-05-19T05:19:33;7.49;;;5.07;;
54143;SDS011;40050;47.324;18.792;2023-05-19T05:21:34;7.30;;;4.97;;
54143;SDS011;40050;47.324;18.792;2023-05-19T05:23:35;6.98;;;5.08;;
54143;SDS011;40050;47.324;18.792;2023-05-19T05:25:37;6.53;;;5.08;;
54143;SDS011;40050;47.324;18.792;2023-05-19T05:27:38;7.06;;;4.98;;
54143;SDS011;40050;47.324;18.792;2023-05-19T05:29:39;7.82;;;4.99;;
54143;SDS011;40050;47.324;18.792;2023-05-19T05:31:40;5.55;;;4.60;;
54143;SDS011;40050;47.324;18.792;2023-05-19T05:33:41;8.09;;;4.91;;
54143;SDS011;40050;47.324;18.792;2023-05-19T05:35:42;5.91;;;5.02;;
54143;SDS011;40050;47.324;18.792;2023-05-19T05:37:43;6.86;;;4.92;;
54143;SDS011;40050;47.324;18.792;2023-05-19T05:39:44;5.29;;;4.53;;
54143;SDS011;40050;47.324;18.792;2023-05-19T05:41:46;8.16;;;5.12;;
54143;SDS011;40050;47.324;18.792;2023-05-19T05:43:46;6.93;;;5.02;;
54143;SDS011;40050;47.324;18.792;2023-05-19T05:45:47;9.52;;;5.21;;
54143;SDS011;40050;47.324;18.792;2023-05-19T05:47:48;10.14;;;5.13;;
54143;SDS011;40050;47.324;18.792;2023-05-19T05:49:49;6.90;;;5.50;;
54143;SDS011;40050;47.324;18.792;2023-05-19T05:51:54;6.36;;;5.21;;
54143;SDS011;40050;47.324;18.792;2023-05-19T05:53:55;9.67;;;5.31;;
54143;SDS011;40050;47.324;18.792;2023-05-19T05:55:56;7.95;;;5.61;;
54143;SDS011;40050;47.324;18.792;2023-05-19T05:57:57;10.99;;;5.80;;
54143;SDS011;40050;47.324;18.792;2023-05-19T05:59:58;7.04;;;5.61;;
54143;SDS011;40050;47.324;18.792;2023-05-19T06:01:59;7.36;;;5.42;;
54143;SDS011;40050;47.324;18.792;2023-05-19T06:04:00;8.96;;;5.43;;
54143;SDS011;40050;47.324;18.792;2023-05-19T06:06:00;7.94;;;6.02;;
54143;SDS011;40050;47.324;18.792;2023-05-19T06:08:01;7.28;;;5.82;;
54143;SDS011;40050;47.324;18.792;2023-05-19T06:10:02;8.77;;;5.72;;
54143;SDS011;40050;47.324;18.792;2023-05-19T06:12:03;8.06;;;5.63;;
54143;SDS011;40050;47.324;18.792;2023-05-19T06:14:05;8.74;;;5.93;;
54143;SDS011;40050;47.324;18.792;2023-05-19T06:16:06;8.25;;;5.93;;
54143;SDS011;40050;47.324;18.792;2023-05-19T06:18:07;7.11;;;5.63;;
54143;SDS011;40050;47.324;18.792;2023-05-19T06:20:08;6.72;;;5.45;;
54143;SDS011;40050;47.324;18.792;2023-05-19T06:22:09;7.03;;;5.45;;
54143;SDS011;40050;47.324;18.792;2023-05-19T06:24:10;9.59;;;5.75;;
54143;SDS011;40050;47.324;18.792;2023-05-19T06:26:11;7.59;;;5.75;;
54143;SDS011;40050;47.324;18.792;2023-05-19T06:28:12;9.20;;;5.25;;
54143;SDS011;40050;47.324;18.792;2023-05-19T06:30:13;7.70;;;5.65;;
54143;SDS011;40050;47.324;18.792;2023-05-19T06:32:14;7.03;;;5.75;;
54143;SDS011;40050;47.324;18.792;2023-05-19T06:34:15;9.13;;;5.85;;
54143;SDS011;40050;47.324;18.792;2023-05-19T06:36:15;9.88;;;5.85;;
54143;SDS011;40050;47.324;18.792;2023-05-19T06:38:16;7.38;;;5.35;;
54143;SDS011;40050;47.324;18.792;2023-05-19T06:40:17;7.32;;;5.85;;
54143;SDS011;40050;47.324;18.792;2023-05-19T06:42:18;7.59;;;5.75;;
54143;SDS011;40050;47.324;18.792;2023-05-19T06:44:19;8.66;;;5.95;;
54143;SDS011;40050;47.324;18.792;2023-05-19T06:46:20;8.57;;;5.85;;
54143;SDS011;40050;47.324;18.792;2023-05-19T06:48:21;9.35;;;5.76;;
54143;SDS011;40050;47.324;18.792;2023-05-19T06:50:22;7.85;;;5.56;;
54143;SDS011;40050;47.324;18.792;2023-05-19T06:52:23;8.90;;;6.26;;
54143;SDS011;40050;47.324;18.792;2023-05-19T06:54:24;8.99;;;6.26;;
54143;SDS011;40050;47.324;18.792;2023-05-19T06:56:24;9.63;;;6.65;;
54143;SDS011;40050;47.324;18.792;2023-05-19T06:58:26;8.04;;;6.26;;
54143;SDS011;40050;47.324;18.792;2023-05-19T07:00:27;10.11;;;5.66;;
54143;SDS011;40050;47.324;18.792;2023-05-19T07:02:28;8.31;;;6.06;;
54143;SDS011;40050;47.324;18.792;2023-05-19T07:04:28;8.31;;;6.15;;
54143;SDS011;40050;47.324;18.792;2023-05-19T07:06:29;8.40;;;6.65;;
54143;SDS011;40050;47.324;18.792;2023-05-19T07:08:30;9.45;;;6.85;;
54143;SDS011;40050;47.324;18.792;2023-05-19T07:10:31;8.85;;;6.65;;
54143;SDS011;40050;47.324;18.792;2023-05-19T07:12:32;7.60;;;6.05;;
54143;SDS011;40050;47.324;18.792;2023-05-19T07:14:33;7.79;;;5.95;;
54143;SDS011;40050;47.324;18.792;2023-05-19T07:16:34;9.52;;;6.35;;
54143;SDS011;40050;47.324;18.792;2023-05-19T07:18:35;7.12;;;5.95;;
54143;SDS011;40050;47.324;18.792;2023-05-19T07:20:36;6.56;;;6.15;;
54143;SDS011;40050;47.324;18.792;2023-05-19T07:22:37;8.29;;;6.45;;
54143;SDS011;40050;47.324;18.792;2023-05-19T07:24:38;9.06;;;6.75;;
54143;SDS011;40050;47.324;18.792;2023-05-19T07:26:39;8.03;;;6.26;;
54143;SDS011;40050;47.324;18.792;2023-05-19T07:28:40;8.70;;;6.06;;
54143;SDS011;40050;47.324;18.792;2023-05-19T07:30:41;9.37;;;6.46;;
54143;SDS011;40050;47.324;18.792;2023-05-19T07:32:42;8.43;;;6.46;;
54143;SDS011;40050;47.324;18.792;2023-05-19T07:34:43;8.04;;;6.06;;
54143;SDS011;40050;47.324;18.792;2023-05-19T07:36:44;8.44;;;5.86;;
54143;SDS011;40050;47.324;18.792;2023-05-19T07:38:45;7.68;;;5.86;;
54143;SDS011;40050;47.324;18.792;2023-05-19T07:40:46;7.50;;;6.36;;
54143;SDS011;40050;47.324;18.792;2023-05-19T07:42:47;8.00;;;6.27;;
54143;SDS011;40050;47.324;18.792;2023-05-19T07:44:48;9.80;;;6.56;;
54143;SDS011;40050;47.324;18.792;2023-05-19T07:46:49;7.13;;;5.97;;
54143;SDS011;40050;47.324;18.792;2023-05-19T07:48:50;7.71;;;5.77;;
54143;SDS011;40050;47.324;18.792;2023-05-19T07:50:51;8.56;;;5.97;;
54143;SDS011;40050;47.324;18.792;2023-05-19T07:52:52;7.28;;;5.96;;
54143;SDS011;40050;47.324;18.792;2023-05-19T07:54:53;8.42;;;5.86;;
54143;SDS011;40050;47.324;18.792;2023-05-19T07:56:53;7.47;;;5.66;;
54143;SDS011;40050;47.324;18.792;2023-05-19T07:58:54;8.33;;;5.46;;
54143;SDS011;40050;47.324;18.792;2023-05-19T08:00:56;7.13;;;5.87;;
54143;SDS011;40050;47.324;18.792;2023-05-19T08:02:56;9.33;;;5.77;;
54143;SDS011;40050;47.324;18.792;2023-05-19T08:04:57;8.13;;;5.28;;
54143;SDS011;40050;47.324;18.792;2023-05-19T08:06:58;5.80;;;5.08;;
54143;SDS011;40050;47.324;18.792;2023-05-19T08:08:59;7.57;;;5.18;;
54143;SDS011;40050;47.324;18.792;2023-05-19T08:11:00;6.22;;;4.88;;
54143;SDS011;40050;47.324;18.792;2023-05-19T08:13:01;7.27;;;4.78;;
54143;SDS011;40050;47.324;18.792;2023-05-19T08:15:02;7.45;;;4.98;;
54143;SDS011;40050;47.324;18.792;2023-05-19T08:17:03;8.71;;;4.78;;
54143;SDS011;40050;47.324;18.792;2023-05-19T08:19:03;6.88;;;3.98;;
54143;SDS011;40050;47.324;18.792;2023-05-19T08:21:04;5.72;;;4.08;;
54143;SDS011;40050;47.324;18.792;2023-05-19T08:23:05;6.01;;;4.08;;
54143;SDS011;40050;47.324;18.792;2023-05-19T08:25:07;5.25;;;4.09;;
54143;SDS011;40050;47.324;18.792;2023-05-19T08:27:07;5.44;;;4.08;;
54143;SDS011;40050;47.324;18.792;2023-05-19T08:29:09;7.80;;;4.49;;
54143;SDS011;40050;47.324;18.792;2023-05-19T08:31:10;6.71;;;4.48;;
54143;SDS011;40050;47.324;18.792;2023-05-19T08:33:11;4.40;;;3.79;;
54143;SDS011;40050;47.324;18.792;2023-05-19T08:35:12;4.97;;;3.69;;
54143;SDS011;40050;47.324;18.792;2023-05-19T08:37:13;4.28;;;3.59;;
54143;SDS011;40050;47.324;18.792;2023-05-19T08:39:14;6.72;;;3.89;;
54143;SDS011;40050;47.324;18.792;2023-05-19T08:41:16;6.65;;;3.79;;
54143;SDS011;40050;47.324;18.792;2023-05-19T08:43:17;5.08;;;3.99;;
54143;SDS011;40050;47.324;18.792;2023-05-19T08:45:18;5.29;;;3.79;;
54143;SDS011;40050;47.324;18.792;2023-05-19T08:47:19;5.00;;;3.59;;
54143;SDS011;40050;47.324;18.792;2023-05-19T08:49:25;7.26;;;3.39;;
54143;SDS011;40050;47.324;18.792;2023-05-19T08:51:45;4.33;;;3.39;;
54143;SDS011;40050;47.324;18.792;2023-05-19T08:53:50;7.07;;;3.39;;
54143;SDS011;40050;47.324;18.792;2023-05-19T08:56:21;5.11;;;3.39;;
54143;SDS011;40050;47.324;18.792;2023-05-19T08:58:07;5.29;;;3.19;;
54143;SDS011;40050;47.324;18.792;2023-05-19T09:00:09;4.90;;;3.39;;
54143;SDS011;40050;47.324;18.792;2023-05-19T09:02:12;4.71;;;3.49;;
54143;SDS011;40050;47.324;18.792;2023-05-19T09:04:14;4.31;;;3.59;;
54143;SDS011;40050;47.324;18.792;2023-05-19T09:06:15;5.91;;;3.39;;
54143;SDS011;40050;47.324;18.792;2023-05-19T09:08:16;4.82;;;3.10;;
54143;SDS011;40050;47.324;18.792;2023-05-19T09:10:17;4.03;;;2.80;;
54143;SDS011;40050;47.324;18.792;2023-05-19T09:12:18;4.73;;;2.90;;
54143;SDS011;40050;47.324;18.792;2023-05-19T09:14:19;5.62;;;3.20;;
54143;SDS011;40050;47.324;18.792;2023-05-19T09:16:20;4.23;;;3.10;;
54143;SDS011;40050;47.324;18.792;2023-05-19T09:18:22;4.23;;;3.00;;
54143;SDS011;40050;47.324;18.792;2023-05-19T09:20:22;4.33;;;2.90;;
54143;SDS011;40050;47.324;18.792;2023-05-19T09:22:27;5.52;;;2.90;;
54143;SDS011;40050;47.324;18.792;2023-05-19T09:24:29;4.14;;;2.80;;
54143;SDS011;40050;47.324;18.792;2023-05-19T09:26:40;5.13;;;3.10;;
54143;SDS011;40050;47.324;18.792;2023-05-19T09:28:35;5.53;;;3.00;;
54143;SDS011;40050;47.324;18.792;2023-05-19T09:30:39;4.84;;;3.10;;
54143;SDS011;40050;47.324;18.792;2023-05-19T09:32:39;5.43;;;3.40;;
54143;SDS011;40050;47.324;18.792;2023-05-19T09:34:43;3.95;;;3.30;;
54143;SDS011;40050;47.324;18.792;2023-05-19T09:36:48;5.14;;;3.00;;
54143;SDS011;40050;47.324;18.792;2023-05-19T09:38:48;5.12;;;3.60;;
54143;SDS011;40050;47.324;18.792;2023-05-19T09:40:49;4.05;;;3.40;;
54143;SDS011;40050;47.324;18.792;2023-05-19T09:42:59;5.82;;;3.00;;
54143;SDS011;40050;47.324;18.792;2023-05-19T09:45:03;5.02;;;3.30;;
54143;SDS011;40050;47.324;18.792;2023-05-19T09:47:02;4.53;;;3.10;;
54143;SDS011;40050;47.324;18.792;2023-05-19T09:49:08;4.72;;;3.20;;
54143;SDS011;40050;47.324;18.792;2023-05-19T09:51:04;3.55;;;3.10;;
54143;SDS011;40050;47.324;18.792;2023-05-19T09:53:08;6.40;;;3.79;;
54143;SDS011;40050;47.324;18.792;2023-05-19T09:55:11;6.11;;;3.99;;
54143;SDS011;40050;47.324;18.792;2023-05-19T09:57:11;6.01;;;3.50;;
54143;SDS011;40050;47.324;18.792;2023-05-19T09:59:12;6.40;;;3.50;;
54143;SDS011;40050;47.324;18.792;2023-05-19T10:01:13;4.44;;;3.40;;
54143;SDS011;40050;47.324;18.792;2023-05-19T10:03:15;5.12;;;3.99;;
54143;SDS011;40050;47.324;18.792;2023-05-19T10:05:16;4.33;;;3.60;;
54143;SDS011;40050;47.324;18.792;2023-05-19T10:07:18;5.12;;;3.79;;
54143;SDS011;40050;47.324;18.792;2023-05-19T10:09:23;5.51;;;3.79;;
54143;SDS011;40050;47.324;18.792;2023-05-19T10:11:21;6.69;;;3.99;;
54143;SDS011;40050;47.324;18.792;2023-05-19T10:13:21;4.05;;;3.70;;
54143;SDS011;40050;47.324;18.792;2023-05-19T10:15:24;5.04;;;3.70;;
54143;SDS011;40050;47.324;18.792;2023-05-19T10:17:26;4.74;;;3.90;;
54143;SDS011;40050;47.324;18.792;2023-05-19T10:19:29;4.54;;;3.60;;
54143;SDS011;40050;47.324;18.792;2023-05-19T10:21:30;5.81;;;3.50;;
54143;SDS011;40050;47.324;18.792;2023-05-19T10:23:31;5.43;;;3.60;;
54143;SDS011;40050;47.324;18.792;2023-05-19T10:25:32;5.82;;;3.90;;
54143;SDS011;40050;47.324;18.792;2023-05-19T10:27:36;4.44;;;3.80;;
54143;SDS011;40050;47.324;18.792;2023-05-19T10:29:38;4.24;;;3.90;;
54143;SDS011;40050;47.324;18.792;2023-05-19T10:31:40;4.04;;;3.60;;
54143;SDS011;40050;47.324;18.792;2023-05-19T10:40:27;5.63;;;4.40;;
54143;SDS011;40050;47.324;18.792;2023-05-19T10:42:39;5.23;;;4.79;;
54143;SDS011;40050;47.324;18.792;2023-05-19T10:44:57;5.82;;;3.80;;
54143;SDS011;40050;47.324;18.792;2023-05-19T10:46:40;5.53;;;4.40;;
54143;SDS011;40050;47.324;18.792;2023-05-19T10:48:51;5.73;;;3.90;;
54143;SDS011;40050;47.324;18.792;2023-05-19T10:50:46;5.13;;;3.50;;
54143;SDS011;40050;47.324;18.792;2023-05-19T10:52:51;5.81;;;4.29;;
54143;SDS011;40050;47.324;18.792;2023-05-19T10:55:11;7.70;;;4.20;;
54143;SDS011;40050;47.324;18.792;2023-05-19T10:57:14;4.53;;;3.70;;
54143;SDS011;40050;47.324;18.792;2023-05-19T10:59:29;5.02;;;3.50;;
54143;SDS011;40050;47.324;18.792;2023-05-19T11:01:33;4.93;;;3.60;;
54143;SDS011;40050;47.324;18.792;2023-05-19T11:03:44;4.82;;;3.30;;
54143;SDS011;40050;47.324;18.792;2023-05-19T11:05:45;3.35;;;3.10;;
54143;SDS011;40050;47.324;18.792;2023-05-19T11:07:56;5.91;;;3.60;;
54143;SDS011;40050;47.324;18.792;2023-05-19T11:09:53;4.84;;;3.50;;
54143;SDS011;40050;47.324;18.792;2023-05-19T11:11:54;3.45;;;3.20;;
54143;SDS011;40050;47.324;18.792;2023-05-19T11:13:58;7.68;;;3.99;;
54143;SDS011;40050;47.324;18.792;2023-05-19T11:16:02;7.49;;;4.29;;
54143;SDS011;40050;47.324;18.792;2023-05-19T11:18:00;5.23;;;3.90;;
54143;SDS011;40050;47.324;18.792;2023-05-19T11:20:01;6.12;;;4.20;;
54143;SDS011;40050;47.324;18.792;2023-05-19T11:22:12;5.84;;;4.40;;
54143;SDS011;40050;47.324;18.792;2023-05-19T11:24:32;6.04;;;4.20;;
54143;SDS011;40050;47.324;18.792;2023-05-19T11:26:38;5.63;;;3.70;;
54143;SDS011;40050;47.324;18.792;2023-05-19T11:28:27;6.11;;;4.19;;
54143;SDS011;40050;47.324;18.792;2023-05-19T11:30:41;6.12;;;4.00;;
54143;SDS011;40050;47.324;18.792;2023-05-19T11:32:42;4.54;;;3.50;;
54143;SDS011;40050;47.324;18.792;2023-05-19T11:34:43;5.02;;;3.50;;
54143;SDS011;40050;47.324;18.792;2023-05-19T11:36:44;4.44;;;3.70;;
54143;SDS011;40050;47.324;18.792;2023-05-19T11:38:46;4.24;;;3.70;;
54143;SDS011;40050;47.324;18.792;2023-05-19T11:40:48;4.83;;;4.19;;
54143;SDS011;40050;47.324;18.792;2023-05-19T11:42:49;5.63;;;3.90;;
54143;SDS011;40050;47.324;18.792;2023-05-19T11:44:50;4.45;;;3.90;;
54143;SDS011;40050;47.324;18.792;2023-05-19T11:46:50;4.54;;;4.00;;
54143;SDS011;40050;47.324;18.792;2023-05-19T11:48:52;6.02;;;4.30;;
54143;SDS011;40050;47.324;18.792;2023-05-19T11:50:53;5.72;;;4.30;;
54143;SDS011;40050;47.324;18.792;2023-05-19T11:52:54;5.32;;;3.69;;
54143;SDS011;40050;47.324;18.792;2023-05-19T11:54:59;6.51;;;4.49;;
54143;SDS011;40050;47.324;18.792;2023-05-19T11:57:04;6.81;;;4.39;;
54143;SDS011;40050;47.324;18.792;2023-05-19T11:59:07;6.52;;;4.50;;
54143;SDS011;40050;47.324;18.792;2023-05-19T12:01:11;5.24;;;4.30;;
54143;SDS011;40050;47.324;18.792;2023-05-19T12:03:12;7.50;;;4.00;;
54143;SDS011;40050;47.324;18.792;2023-05-19T12:05:20;7.20;;;4.59;;
54143;SDS011;40050;47.324;18.792;2023-05-19T12:07:14;6.42;;;4.50;;
54143;SDS011;40050;47.324;18.792;2023-05-19T12:09:15;6.71;;;4.10;;
54143;SDS011;40050;47.324;18.792;2023-05-19T12:11:19;4.94;;;3.60;;
54143;SDS011;40050;47.324;18.792;2023-05-19T12:13:21;8.19;;;4.60;;
54143;SDS011;40050;47.324;18.792;2023-05-19T12:15:22;4.93;;;4.30;;
54143;SDS011;40050;47.324;18.792;2023-05-19T12:17:23;8.29;;;4.49;;
54143;SDS011;40050;47.324;18.792;2023-05-19T12:19:25;7.20;;;4.79;;